sensor_id;sensor_type;location;lat;lon;timestamp;pressure;altitude;pressure_sealevel;temperature;humidity
29121;BME280;16191;49.548;8.658;2023-04-09T00:01:59;101184.44;;;9.03;90.59
29121;BME280;16191;49.548;8.658;2023-04-09T00:04:26;101195.81;;;8.97;92.55
29121;BME280;16191;49.548;8.658;2023-04-09T00:06:52;101185.56;;;8.88;92.75
29121;BME280;16191;49.548;8.658;2023-04-09T00:09:19;101179.38;;;8.93;92.72
29121;BME280;16191;49.548;8.658;2023-04-09T00:11:46;101185.63;;;8.86;92.88
29121;BME280;16191;49.548;8.658;2023-04-09T00:14:12;101189.09;;;8.87;94.37
29121;BME280;16191;49.548;8.658;2023-04-09T00:16:39;101188.91;;;8.94;94.14
29121;BME280;16191;49.548;8.658;2023-04-09T00:19:06;101180.31;;;8.89;92.86
29121;BME280;16191;49.548;8.658;2023-04-09T00:21:32;101176.81;;;8.92;93.62
29121;BME280;16191;49.548;8.658;2023-04-09T00:23:59;101175.44;;;8.73;94.02
29121;BME280;16191;49.548;8.658;2023-04-09T00:26:26;101175.41;;;8.76;94.93
29121;BME280;16191;49.548;8.658;2023-04-09T00:28:53;101176.97;;;8.84;95.99
29121;BME280;16191;49.548;8.658;2023-04-09T00:31:20;101174.66;;;8.68;95.94
29121;BME280;16191;49.548;8.658;2023-04-09T00:33:47;101171.19;;;8.69;96.55
29121;BME280;16191;49.548;8.658;2023-04-09T00:36:14;101172.91;;;8.68;97.37
29121;BME280;16191;49.548;8.658;2023-04-09T00:38:40;101169.56;;;8.63;98.27
29121;BME280;16191;49.548;8.658;2023-04-09T00:41:07;101174.13;;;8.49;99.89
29121;BME280;16191;49.548;8.658;2023-04-09T00:43:34;101167.97;;;8.54;99.00
29121;BME280;16191;49.548;8.658;2023-04-09T00:46:00;101170.44;;;8.64;98.11
29121;BME280;16191;49.548;8.658;2023-04-09T00:48:27;101168.03;;;8.51;100.00
29121;BME280;16191;49.548;8.658;2023-04-09T00:50:53;101167.41;;;8.37;100.00
29121;BME280;16191;49.548;8.658;2023-04-09T00:53:20;101169.75;;;8.52;99.64
29121;BME280;16191;49.548;8.658;2023-04-09T00:55:47;101169.66;;;8.57;98.95
29121;BME280;16191;49.548;8.658;2023-04-09T00:58:14;101172.34;;;8.52;100.00
29121;BME280;16191;49.548;8.658;2023-04-09T01:00:40;101167.34;;;8.42;100.00
29121;BME280;16191;49.548;8.658;2023-04-09T01:03:07;101165.44;;;8.51;100.00
29121;BME280;16191;49.548;8.658;2023-04-09T01:05:45;101169.56;;;8.63;99.94
29121;BME280;16191;49.548;8.658;2023-04-09T01:11:02;101168.09;;;8.47;100.00
29121;BME280;16191;49.548;8.658;2023-04-09T01:13:48;101171.69;;;8.41;100.00
29121;BME280;16191;49.548;8.658;2023-04-09T01:16:21;101165.69;;;8.38;100.00
29121;BME280;16191;49.548;8.658;2023-04-09T01:18:55;101165.63;;;8.41;100.00
29121;BME280;16191;49.548;8.658;2023-04-09T01:21:29;101167.50;;;8.33;100.00
29121;BME280;16191;49.548;8.658;2023-04-09T01:24:20;101164.97;;;8.25;100.00
29121;BME280;16191;49.548;8.658;2023-04-09T01:27:02;101158.03;;;8.25;100.00
29121;BME280;16191;49.548;8.658;2023-04-09T01:29:55;101163.41;;;8.16;100.00
29121;BME280;16191;49.548;8.658;2023-04-09T01:32:23;101158.31;;;8.09;100.00
29121;BME280;16191;49.548;8.658;2023-04-09T01:34:52;101156.50;;;8.14;100.00
29121;BME280;16191;49.548;8.658;2023-04-09T01:37:19;101162.66;;;8.08;100.00
29121;BME280;16191;49.548;8.658;2023-04-09T01:39:47;101166.19;;;8.04;100.00
29121;BME280;16191;49.548;8.658;2023-04-09T01:42:14;101163.56;;;8.06;100.00
29121;BME280;16191;49.548;8.658;2023-04-09T01:44:41;101171.38;;;8.06;100.00
29121;BME280;16191;49.548;8.658;2023-04-09T01:47:10;101171.28;;;8.10;100.00
29121;BME280;16191;49.548;8.658;2023-04-09T01:49:37;101175.81;;;7.99;100.00
29121;BME280;16191;49.548;8.658;2023-04-09T01:52:05;101169.91;;;7.88;100.00
29121;BME280;16191;49.548;8.658;2023-04-09T01:54:32;101173.22;;;7.99;100.00
29121;BME280;16191;49.548;8.658;2023-04-09T01:57:02;101173.16;;;8.02;100.00
29121;BME280;16191;49.548;8.658;2023-04-09T01:59:49;101170.53;;;8.02;100.00
29121;BME280;16191;49.548;8.658;2023-04-09T02:02:56;101171.66;;;7.87;100.00
29121;BME280;16191;49.548;8.658;2023-04-09T02:05:55;101176.75;;;7.94;100.00
29121;BME280;16191;49.548;8.658;2023-04-09T02:08:43;101173.22;;;7.99;100.00
29121;BME280;16191;49.548;8.658;2023-04-09T02:11:32;101174.28;;;7.84;100.00
29121;BME280;16191;49.548;8.658;2023-04-09T02:14:19;101171.03;;;7.70;100.00
29121;BME280;16191;49.548;8.658;2023-04-09T02:16:46;101175.34;;;7.73;100.00
29121;BME280;16191;49.548;8.658;2023-04-09T02:19:13;101175.44;;;7.65;100.00
29121;BME280;16191;49.548;8.658;2023-04-09T02:21:40;101172.84;;;7.65;100.00
29121;BME280;16191;49.548;8.658;2023-04-09T02:24:07;101177.22;;;7.62;100.00
29121;BME280;16191;49.548;8.658;2023-04-09T02:26:33;101179.84;;;7.58;100.00
29121;BME280;16191;49.548;8.658;2023-04-09T02:29:00;101173.41;;;7.22;100.00
29121;BME280;16191;49.548;8.658;2023-04-09T02:31:26;101174.16;;;7.34;100.00
29121;BME280;16191;49.548;8.658;2023-04-09T02:33:53;101179.38;;;7.31;100.00
29121;BME280;16191;49.548;8.658;2023-04-09T02:36:20;101175.72;;;7.44;100.00
29121;BME280;16191;49.548;8.658;2023-04-09T02:38:47;101180.06;;;7.43;100.00
29121;BME280;16191;49.548;8.658;2023-04-09T02:41:13;101173.22;;;7.36;100.00
29121;BME280;16191;49.548;8.658;2023-04-09T02:43:40;101168.97;;;7.34;100.00
29121;BME280;16191;49.548;8.658;2023-04-09T02:46:06;101170.81;;;7.22;100.00
29121;BME280;16191;49.548;8.658;2023-04-09T02:48:34;101166.53;;;7.18;100.00
29121;BME280;16191;49.548;8.658;2023-04-09T02:51:04;101171.84;;;7.09;100.00
29121;BME280;16191;49.548;8.658;2023-04-09T02:53:31;101169.06;;;7.23;100.00
29121;BME280;16191;49.548;8.658;2023-04-09T02:55:58;101172.56;;;7.22;100.00
29121;BME280;16191;49.548;8.658;2023-04-09T02:58:24;101166.56;;;7.15;100.00
29121;BME280;16191;49.548;8.658;2023-04-09T03:00:51;101165.00;;;7.02;100.00
29121;BME280;16191;49.548;8.658;2023-04-09T03:03:17;101164.28;;;6.93;100.00
29121;BME280;16191;49.548;8.658;2023-04-09T03:05:44;101161.56;;;7.02;100.00
29121;BME280;16191;49.548;8.658;2023-04-09T03:08:11;101162.50;;;6.95;100.00
29121;BME280;16191;49.548;8.658;2023-04-09T03:10:38;101161.63;;;6.94;100.00
29121;BME280;16191;49.548;8.658;2023-04-09T03:13:05;101162.38;;;7.05;100.00
29121;BME280;16191;49.548;8.658;2023-04-09T03:15:31;101158.06;;;7.04;100.00
29121;BME280;16191;49.548;8.658;2023-04-09T03:17:58;101159.84;;;7.01;100.00
29121;BME280;16191;49.548;8.658;2023-04-09T03:20:25;101163.28;;;7.01;100.00
29121;BME280;16191;49.548;8.658;2023-04-09T03:22:51;101161.81;;;6.77;100.00
29121;BME280;16191;49.548;8.658;2023-04-09T03:25:30;101158.97;;;6.99;100.00
29121;BME280;16191;49.548;8.658;2023-04-09T03:28:00;101163.44;;;6.87;100.00
29121;BME280;16191;49.548;8.658;2023-04-09T03:30:35;101160.28;;;6.60;100.00
29121;BME280;16191;49.548;8.658;2023-04-09T03:33:04;101151.50;;;6.71;100.00
29121;BME280;16191;49.548;8.658;2023-04-09T03:35:35;101158.56;;;6.60;100.00
29121;BME280;16191;49.548;8.658;2023-04-09T03:38:02;101155.09;;;6.60;100.00
29121;BME280;16191;49.548;8.658;2023-04-09T03:40:29;101152.50;;;6.61;100.00
29121;BME280;16191;49.548;8.658;2023-04-09T03:42:55;101153.38;;;6.59;100.00
29121;BME280;16191;49.548;8.658;2023-04-09T03:45:22;101145.72;;;6.46;100.00
29121;BME280;16191;49.548;8.658;2023-04-09T03:47:50;101151.69;;;6.53;100.00
29121;BME280;16191;49.548;8.658;2023-04-09T03:50:21;101147.34;;;6.55;100.00
29121;BME280;16191;49.548;8.658;2023-04-09T03:52:51;101146.59;;;6.45;100.00
29121;BME280;16191;49.548;8.658;2023-04-09T03:55:18;101149.22;;;6.41;100.00
29121;BME280;16191;49.548;8.658;2023-04-09T03:57:46;101145.66;;;6.51;100.00
29121;BME280;16191;49.548;8.658;2023-04-09T04:00:16;101151.84;;;6.39;100.00
29121;BME280;16191;49.548;8.658;2023-04-09T04:02:49;101148.38;;;6.40;100.00
29121;BME280;16191;49.548;8.658;2023-04-09T04:05:25;101146.63;;;6.41;100.00
29121;BME280;16191;49.548;8.658;2023-04-09T04:07:54;101152.66;;;6.46;100.00
29121;BME280;16191;49.548;8.658;2023-04-09T04:10:25;101147.50;;;6.43;100.00
29121;BME280;16191;49.548;8.658;2023-04-09T04:12:52;101140.53;;;6.48;100.00
29121;BME280;16191;49.548;8.658;2023-04-09T04:15:41;101146.47;;;6.56;100.00
29121;BME280;16191;49.548;8.658;2023-04-09T04:18:09;101148.25;;;6.51;100.00
29121;BME280;16191;49.548;8.658;2023-04-09T04:20:41;101146.50;;;6.53;100.00
29121;BME280;16191;49.548;8.658;2023-04-09T04:23:12;101156.13;;;6.45;100.00
29121;BME280;16191;49.548;8.658;2023-04-09T04:25:48;101156.13;;;6.42;100.00
29121;BME280;16191;49.548;8.658;2023-04-09T04:28:21;101156.94;;;6.48;100.00
29121;BME280;16191;49.548;8.658;2023-04-09T04:30:48;101154.41;;;6.41;100.00
29121;BME280;16191;49.548;8.658;2023-04-09T04:33:15;101158.78;;;6.36;100.00
29121;BME280;16191;49.548;8.658;2023-04-09T04:35:47;101159.59;;;6.41;100.00
29121;BME280;16191;49.548;8.658;2023-04-09T04:38:30;101163.97;;;6.33;100.00
29121;BME280;16191;49.548;8.658;2023-04-09T04:40:59;101161.47;;;6.27;100.00
29121;BME280;16191;49.548;8.658;2023-04-09T04:43:26;101159.75;;;6.24;100.00
29121;BME280;16191;49.548;8.658;2023-04-09T04:45:56;101166.66;;;6.25;100.00
29121;BME280;16191;49.548;8.658;2023-04-09T04:48:27;101161.47;;;6.27;100.00
29121;BME280;16191;49.548;8.658;2023-04-09T04:50:56;101160.63;;;6.22;100.00
29121;BME280;16191;49.548;8.658;2023-04-09T04:53:25;101161.50;;;6.22;100.00
29121;BME280;16191;49.548;8.658;2023-04-09T04:55:53;101169.25;;;6.25;100.00
29121;BME280;16191;49.548;8.658;2023-04-09T04:58:24;101166.72;;;6.19;100.00
29121;BME280;16191;49.548;8.658;2023-04-09T05:00:55;101167.53;;;6.24;100.00
29121;BME280;16191;49.548;8.658;2023-04-09T05:03:21;101168.44;;;6.18;100.00
29121;BME280;16191;49.548;8.658;2023-04-09T05:06:14;101166.75;;;6.11;100.00
29121;BME280;16191;49.548;8.658;2023-04-09T05:08:43;101167.59;;;6.13;100.00
29121;BME280;16191;49.548;8.658;2023-04-09T05:11:11;101164.13;;;6.16;100.00
29121;BME280;16191;49.548;8.658;2023-04-09T05:13:39;101169.34;;;6.13;100.00
29121;BME280;16191;49.548;8.658;2023-04-09T05:16:17;101169.34;;;6.10;100.00
29121;BME280;16191;49.548;8.658;2023-04-09T05:18:50;101168.50;;;6.06;100.00
29121;BME280;16191;49.548;8.658;2023-04-09T05:21:17;101171.16;;;6.05;100.00
29121;BME280;16191;49.548;8.658;2023-04-09T05:23:45;101174.63;;;6.02;100.00
29121;BME280;16191;49.548;8.658;2023-04-09T05:26:11;101171.94;;;6.10;100.00
29121;BME280;16191;49.548;8.658;2023-04-09T05:28:57;101178.06;;;6.06;100.00
29121;BME280;16191;49.548;8.658;2023-04-09T05:31:24;101170.19;;;6.13;100.00
29121;BME280;16191;49.548;8.658;2023-04-09T05:34:04;101172.03;;;6.02;100.00
29121;BME280;16191;49.548;8.658;2023-04-09T05:36:36;101176.38;;;5.96;100.00
29121;BME280;16191;49.548;8.658;2023-04-09T05:39:03;101175.53;;;5.95;100.00
29121;BME280;16191;49.548;8.658;2023-04-09T05:41:30;101176.38;;;5.96;100.00
29121;BME280;16191;49.548;8.658;2023-04-09T05:44:17;101172.94;;;5.97;100.00
29121;BME280;16191;49.548;8.658;2023-04-09T05:46:44;101170.28;;;6.06;100.00
29121;BME280;16191;49.548;8.658;2023-04-09T05:49:14;101172.03;;;5.99;100.00
29121;BME280;16191;49.548;8.658;2023-04-09T05:51:43;101175.41;;;6.10;100.00
29121;BME280;16191;49.548;8.658;2023-04-09T05:54:10;101169.31;;;6.14;100.00
29121;BME280;16191;49.548;8.658;2023-04-09T05:56:37;101177.03;;;6.24;100.00
29121;BME280;16191;49.548;8.658;2023-04-09T05:59:04;101178.75;;;6.25;100.00
29121;BME280;16191;49.548;8.658;2023-04-09T06:01:31;101178.75;;;6.26;100.00
29121;BME280;16191;49.548;8.658;2023-04-09T06:03:58;101172.66;;;6.30;100.00
29121;BME280;16191;49.548;8.658;2023-04-09T06:06:28;101177.81;;;6.32;100.00
29121;BME280;16191;49.548;8.658;2023-04-09T06:08:55;101180.38;;;6.38;100.00
29121;BME280;16191;49.548;8.658;2023-04-09T06:11:21;101176.88;;;6.42;100.00
29121;BME280;16191;49.548;8.658;2023-04-09T06:13:48;101180.22;;;6.53;100.00
29121;BME280;16191;49.548;8.658;2023-04-09T06:16:16;101182.78;;;6.58;100.00
29121;BME280;16191;49.548;8.658;2023-04-09T06:18:43;101179.34;;;6.56;100.00
29121;BME280;16191;49.548;8.658;2023-04-09T06:21:12;101186.19;;;6.61;100.00
29121;BME280;16191;49.548;8.658;2023-04-09T06:23:39;101180.94;;;6.69;100.00
29121;BME280;16191;49.548;8.658;2023-04-09T06:26:05;101184.34;;;6.74;100.00
29121;BME280;16191;49.548;8.658;2023-04-09T06:28:32;101186.06;;;6.73;100.00
29121;BME280;16191;49.548;8.658;2023-04-09T06:30:58;101183.38;;;6.84;100.00
29121;BME280;16191;49.548;8.658;2023-04-09T06:33:25;101183.31;;;6.90;100.00
29121;BME280;16191;49.548;8.658;2023-04-09T06:35:52;101189.25;;;6.98;100.00
29121;BME280;16191;49.548;8.658;2023-04-09T06:38:19;101183.19;;;7.01;100.00
29121;BME280;16191;49.548;8.658;2023-04-09T06:40:45;101191.81;;;7.04;100.00
29121;BME280;16191;49.548;8.658;2023-04-09T06:43:12;101195.22;;;7.08;100.00
29121;BME280;16191;49.548;8.658;2023-04-09T06:45:47;101195.09;;;7.17;100.00
29121;BME280;16191;49.548;8.658;2023-04-09T06:48:13;101195.91;;;7.22;100.00
29121;BME280;16191;49.548;8.658;2023-04-09T06:50:40;101197.63;;;7.23;100.00
29121;BME280;16191;49.548;8.658;2023-04-09T06:53:07;101202.72;;;7.32;100.00
29121;BME280;16191;49.548;8.658;2023-04-09T06:55:33;101199.31;;;7.29;100.00
29121;BME280;16191;49.548;8.658;2023-04-09T06:58:00;101201.66;;;7.48;100.00
29121;BME280;16191;49.548;8.658;2023-04-09T07:00:28;101197.31;;;7.49;100.00
29121;BME280;16191;49.548;8.658;2023-04-09T07:02:54;101198.97;;;7.56;100.00
29121;BME280;16191;49.548;8.658;2023-04-09T07:05:22;101198.78;;;7.68;100.00
29121;BME280;16191;49.548;8.658;2023-04-09T07:07:49;101196.09;;;7.76;100.00
29121;BME280;16191;49.548;8.658;2023-04-09T07:10:15;101208.19;;;7.77;100.00
29121;BME280;16191;49.548;8.658;2023-04-09T07:12:42;101190.88;;;7.77;100.00
29121;BME280;16191;49.548;8.658;2023-04-09T07:15:09;101203.72;;;7.85;100.00
29121;BME280;16191;49.548;8.658;2023-04-09T07:17:35;101203.63;;;7.93;100.00
29121;BME280;16191;49.548;8.658;2023-04-09T07:20:02;101201.72;;;8.04;100.00
29121;BME280;16191;49.548;8.658;2023-04-09T07:22:29;101206.91;;;8.05;100.00
29121;BME280;16191;49.548;8.658;2023-04-09T07:24:58;101206.75;;;8.14;100.00
29121;BME280;16191;49.548;8.658;2023-04-09T07:27:26;101207.50;;;8.22;100.00
29121;BME280;16191;49.548;8.658;2023-04-09T07:29:54;101200.72;;;8.14;100.00
29121;BME280;16191;49.548;8.658;2023-04-09T07:32:22;101208.22;;;8.34;100.00
29121;BME280;16191;49.548;8.658;2023-04-09T07:34:52;101206.38;;;8.42;100.00
29121;BME280;16191;49.548;8.658;2023-04-09T07:37:19;101214.00;;;8.49;100.00
29121;BME280;16191;49.548;8.658;2023-04-09T07:39:47;101205.88;;;8.69;100.00
29121;BME280;16191;49.548;8.658;2023-04-09T07:42:14;101210.06;;;8.78;100.00
29121;BME280;16191;49.548;8.658;2023-04-09T07:44:41;101205.41;;;8.93;100.00
29121;BME280;16191;49.548;8.658;2023-04-09T07:47:07;101192.78;;;9.18;100.00
29121;BME280;16191;49.548;8.658;2023-04-09T07:49:35;101197.63;;;9.37;100.00
29121;BME280;16191;49.548;8.658;2023-04-09T07:52:03;101206.09;;;9.48;100.00
29121;BME280;16191;49.548;8.658;2023-04-09T07:54:31;101203.59;;;9.82;100.00
29121;BME280;16191;49.548;8.658;2023-04-09T07:56:59;101199.91;;;9.92;100.00
29121;BME280;16191;49.548;8.658;2023-04-09T07:59:27;101204.84;;;10.03;100.00
29121;BME280;16191;49.548;8.658;2023-04-09T08:01:53;101201.06;;;10.16;100.00
29121;BME280;16191;49.548;8.658;2023-04-09T08:04:20;101204.31;;;10.27;100.00
29121;BME280;16191;49.548;8.658;2023-04-09T08:06:47;101204.97;;;10.35;99.95
29121;BME280;16191;49.548;8.658;2023-04-09T08:09:17;101208.84;;;10.54;95.38
29121;BME280;16191;49.548;8.658;2023-04-09T08:11:44;101205.78;;;10.71;94.39
29121;BME280;16191;49.548;8.658;2023-04-09T08:14:12;101204.75;;;10.78;91.68
29121;BME280;16191;49.548;8.658;2023-04-09T08:16:40;101206.28;;;10.85;89.69
29121;BME280;16191;49.548;8.658;2023-04-09T08:19:08;101204.00;;;10.73;85.95
29121;BME280;16191;49.548;8.658;2023-04-09T08:21:38;101198.03;;;11.01;86.30
29121;BME280;16191;49.548;8.658;2023-04-09T08:24:09;101211.88;;;11.35;81.48
29121;BME280;16191;49.548;8.658;2023-04-09T08:26:40;101205.72;;;11.67;77.19
29121;BME280;16191;49.548;8.658;2023-04-09T08:29:09;101208.22;;;11.10;76.78
29121;BME280;16191;49.548;8.658;2023-04-09T08:31:37;101207.03;;;11.21;78.01
29121;BME280;16191;49.548;8.658;2023-04-09T08:34:04;101215.16;;;11.42;77.29
29121;BME280;16191;49.548;8.658;2023-04-09T08:36:31;101215.47;;;11.60;75.21
29121;BME280;16191;49.548;8.658;2023-04-09T08:38:58;101212.41;;;12.05;72.65
29121;BME280;16191;49.548;8.658;2023-04-09T08:41:27;101218.13;;;12.16;69.98
29121;BME280;16191;49.548;8.658;2023-04-09T08:43:55;101221.16;;;12.57;67.85
29121;BME280;16191;49.548;8.658;2023-04-09T08:46:25;101217.94;;;12.75;67.74
29121;BME280;16191;49.548;8.658;2023-04-09T08:48:52;101217.69;;;12.56;66.42
29121;BME280;16191;49.548;8.658;2023-04-09T08:51:23;101213.97;;;12.63;66.81
29121;BME280;16191;49.548;8.658;2023-04-09T08:53:57;101217.94;;;12.75;65.49
29121;BME280;16191;49.548;8.658;2023-04-09T08:56:29;101219.38;;;12.84;65.01
29121;BME280;16191;49.548;8.658;2023-04-09T08:58:55;101212.56;;;13.03;63.42
29121;BME280;16191;49.548;8.658;2023-04-09T09:01:24;101216.28;;;13.46;60.80
29121;BME280;16191;49.548;8.658;2023-04-09T09:06:24;101223.06;;;13.03;61.98
29121;BME280;16191;49.548;8.658;2023-04-09T09:09:00;101221.47;;;12.99;62.00
29121;BME280;16191;49.548;8.658;2023-04-09T09:11:27;101226.47;;;12.80;62.83
29121;BME280;16191;49.548;8.658;2023-04-09T09:14:01;101227.13;;;12.87;61.95
29121;BME280;16191;49.548;8.658;2023-04-09T09:16:28;101218.91;;;12.46;60.44
29121;BME280;16191;49.548;8.658;2023-04-09T09:18:55;101217.44;;;12.64;60.22
29121;BME280;16191;49.548;8.658;2023-04-09T09:21:23;101221.38;;;13.00;60.04
29121;BME280;16191;49.548;8.658;2023-04-09T09:23:51;101209.63;;;13.37;58.62
29121;BME280;16191;49.548;8.658;2023-04-09T09:26:22;101199.94;;;13.16;58.49
29121;BME280;16191;49.548;8.658;2023-04-09T09:28:50;101209.09;;;12.78;59.45
29121;BME280;16191;49.548;8.658;2023-04-09T09:31:19;101206.25;;;12.59;59.91
29121;BME280;16191;49.548;8.658;2023-04-09T09:33:47;101208.31;;;12.76;58.77
29121;BME280;16191;49.548;8.658;2023-04-09T09:36:33;101188.75;;;12.86;59.49
29121;BME280;16191;49.548;8.658;2023-04-09T09:39:01;101208.78;;;12.87;58.66
29121;BME280;16191;49.548;8.658;2023-04-09T09:41:35;101215.75;;;12.88;59.22
29121;BME280;16191;49.548;8.658;2023-04-09T09:44:02;101209.03;;;13.29;58.58
29121;BME280;16191;49.548;8.658;2023-04-09T09:46:33;101209.53;;;13.40;58.19
29121;BME280;16191;49.548;8.658;2023-04-09T09:49:01;101203.00;;;13.27;59.26
29121;BME280;16191;49.548;8.658;2023-04-09T09:51:27;101205.41;;;13.33;59.90
29121;BME280;16191;49.548;8.658;2023-04-09T09:53:57;101214.63;;;12.95;59.24
29121;BME280;16191;49.548;8.658;2023-04-09T09:56:29;101210.25;;;12.95;57.90
29121;BME280;16191;49.548;8.658;2023-04-09T09:59:05;101214.19;;;13.07;58.10
29121;BME280;16191;49.548;8.658;2023-04-09T10:01:33;101205.38;;;12.85;58.36
29121;BME280;16191;49.548;8.658;2023-04-09T10:04:05;101205.81;;;12.46;59.34
29121;BME280;16191;49.548;8.658;2023-04-09T10:06:32;101206.97;;;12.64;59.25
29121;BME280;16191;49.548;8.658;2023-04-09T10:09:04;101199.31;;;13.08;58.18
29121;BME280;16191;49.548;8.658;2023-04-09T10:11:34;101195.44;;;13.19;57.96
29121;BME280;16191;49.548;8.658;2023-04-09T10:14:02;101194.03;;;13.09;58.08
29121;BME280;16191;49.548;8.658;2023-04-09T10:16:30;101196.00;;;13.02;58.43
29121;BME280;16191;49.548;8.658;2023-04-09T10:18:58;101187.50;;;13.21;58.93
29121;BME280;16191;49.548;8.658;2023-04-09T10:24:13;101189.69;;;12.58;59.56
29121;BME280;16191;49.548;8.658;2023-04-09T10:26:42;101199.59;;;12.75;60.83
29121;BME280;16191;49.548;8.658;2023-04-09T10:29:15;101193.50;;;12.50;60.11
29121;BME280;16191;49.548;8.658;2023-04-09T10:32:06;101189.47;;;13.14;59.70
29121;BME280;16191;49.548;8.658;2023-04-09T10:34:40;101190.81;;;13.26;59.53
29121;BME280;16191;49.548;8.658;2023-04-09T10:37:12;101185.56;;;13.26;58.15
29121;BME280;16191;49.548;8.658;2023-04-09T10:39:40;101190.41;;;12.63;59.41
29121;BME280;16191;49.548;8.658;2023-04-09T10:42:14;101188.25;;;12.50;58.73
29121;BME280;16191;49.548;8.658;2023-04-09T10:44:41;101185.53;;;12.53;59.48
29121;BME280;16191;49.548;8.658;2023-04-09T10:47:09;101183.41;;;12.64;59.68
29121;BME280;16191;49.548;8.658;2023-04-09T10:52:10;101167.97;;;13.04;58.57
29121;BME280;16191;49.548;8.658;2023-04-09T10:54:41;101166.66;;;13.41;57.70
29121;BME280;16191;49.548;8.658;2023-04-09T10:57:15;101168.75;;;13.55;56.75
29121;BME280;16191;49.548;8.658;2023-04-09T10:59:51;101164.25;;;13.58;56.19
29121;BME280;16191;49.548;8.658;2023-04-09T11:05:24;101162.88;;;14.14;53.91
29121;BME280;16191;49.548;8.658;2023-04-09T11:08:02;101165.88;;;14.26;54.05
29121;BME280;16191;49.548;8.658;2023-04-09T11:10:30;101158.16;;;14.01;48.67
29121;BME280;16191;49.548;8.658;2023-04-09T11:12:57;101165.84;;;14.06;49.28
29121;BME280;16191;49.548;8.658;2023-04-09T11:15:24;101161.28;;;14.31;51.72
29121;BME280;16191;49.548;8.658;2023-04-09T11:17:50;101157.09;;;14.27;51.20
29121;BME280;16191;49.548;8.658;2023-04-09T11:20:20;101153.72;;;14.66;50.61
29121;BME280;16191;49.548;8.658;2023-04-09T11:22:52;101148.34;;;14.69;49.89
29121;BME280;16191;49.548;8.658;2023-04-09T11:25:31;101149.72;;;14.96;47.68
29121;BME280;16191;49.548;8.658;2023-04-09T11:27:59;101149.97;;;15.11;46.39
29121;BME280;16191;49.548;8.658;2023-04-09T11:30:27;101141.66;;;14.40;45.37
29121;BME280;16191;49.548;8.658;2023-04-09T11:32:54;101151.63;;;15.32;45.46
29121;BME280;16191;49.548;8.658;2023-04-09T11:35:21;101142.38;;;15.42;43.77
29121;BME280;16191;49.548;8.658;2023-04-09T11:37:49;101144.59;;;15.51;43.73
29121;BME280;16191;49.548;8.658;2023-04-09T11:40:22;101137.63;;;15.50;43.80
29121;BME280;16191;49.548;8.658;2023-04-09T11:42:52;101141.38;;;15.26;44.75
29121;BME280;16191;49.548;8.658;2023-04-09T11:45:23;101142.03;;;15.31;42.95
29121;BME280;16191;49.548;8.658;2023-04-09T11:47:50;101142.38;;;15.23;42.46
29121;BME280;16191;49.548;8.658;2023-04-09T11:50:18;101148.63;;;15.39;42.18
29121;BME280;16191;49.548;8.658;2023-04-09T11:52:45;101150.94;;;14.89;43.31
29121;BME280;16191;49.548;8.658;2023-04-09T11:55:22;101144.75;;;14.90;42.38
29121;BME280;16191;49.548;8.658;2023-04-09T11:57:50;101146.31;;;15.33;42.15
29121;BME280;16191;49.548;8.658;2023-04-09T12:00:18;101144.72;;;15.48;41.68
29121;BME280;16191;49.548;8.658;2023-04-09T12:02:47;101149.59;;;15.57;42.36
29121;BME280;16191;49.548;8.658;2023-04-09T12:05:24;101149.28;;;15.26;42.13
29121;BME280;16191;49.548;8.658;2023-04-09T12:07:56;101153.34;;;15.14;42.12
29121;BME280;16191;49.548;8.658;2023-04-09T12:10:28;101151.09;;;15.05;40.58
29121;BME280;16191;49.548;8.658;2023-04-09T12:13:00;101142.25;;;15.64;39.77
29121;BME280;16191;49.548;8.658;2023-04-09T12:15:34;101140.09;;;15.91;39.60
29121;BME280;16191;49.548;8.658;2023-04-09T12:18:01;101131.00;;;16.67;39.29
29121;BME280;16191;49.548;8.658;2023-04-09T12:20:35;101137.25;;;16.30;38.46
29121;BME280;16191;49.548;8.658;2023-04-09T12:23:03;101146.56;;;16.20;39.37
29121;BME280;16191;49.548;8.658;2023-04-09T12:25:33;101147.34;;;16.39;39.23
29121;BME280;16191;49.548;8.658;2023-04-09T12:28:01;101132.22;;;16.77;38.25
29121;BME280;16191;49.548;8.658;2023-04-09T12:30:28;101143.44;;;16.46;37.35
29121;BME280;16191;49.548;8.658;2023-04-09T12:32:55;101137.50;;;16.42;38.52
29121;BME280;16191;49.548;8.658;2023-04-09T12:35:21;101126.03;;;16.43;38.17
29121;BME280;16191;49.548;8.658;2023-04-09T12:37:48;101128.75;;;16.42;38.79
29121;BME280;16191;49.548;8.658;2023-04-09T12:40:16;101112.28;;;16.54;38.46
29121;BME280;16191;49.548;8.658;2023-04-09T12:42:43;101114.06;;;16.88;37.82
29121;BME280;16191;49.548;8.658;2023-04-09T12:45:12;101112.28;;;16.89;37.52
29121;BME280;16191;49.548;8.658;2023-04-09T12:47:39;101102.13;;;18.07;35.72
29121;BME280;16191;49.548;8.658;2023-04-09T12:50:08;101106.00;;;17.86;37.06
29121;BME280;16191;49.548;8.658;2023-04-09T12:52:35;101102.13;;;18.07;36.44
29121;BME280;16191;49.548;8.658;2023-04-09T12:55:03;101097.75;;;18.80;34.24
29121;BME280;16191;49.548;8.658;2023-04-09T12:57:30;101094.09;;;17.78;35.53
29121;BME280;16191;49.548;8.658;2023-04-09T12:59:57;101100.81;;;17.84;35.52
29121;BME280;16191;49.548;8.658;2023-04-09T13:02:24;101084.81;;;18.17;36.16
29121;BME280;16191;49.548;8.658;2023-04-09T13:04:51;101088.66;;;19.68;34.64
29121;BME280;16191;49.548;8.658;2023-04-09T13:07:18;101070.69;;;18.46;33.44
29121;BME280;16191;49.548;8.658;2023-04-09T13:09:46;101081.16;;;18.34;34.07
29121;BME280;16191;49.548;8.658;2023-04-09T13:12:14;101071.84;;;19.13;34.39
29121;BME280;16191;49.548;8.658;2023-04-09T13:14:42;101062.25;;;20.45;32.40
29121;BME280;16191;49.548;8.658;2023-04-09T13:17:10;101068.91;;;20.38;31.31